sensor_id;sensor_type;location;lat;lon;timestamp;temperature;humidity
48998;DHT22;34807;51.456;7.244;2023-05-14T00:01:30;14.80;95.50
48998;DHT22;34807;51.456;7.244;2023-05-14T00:03:56;14.70;95.50
48998;DHT22;34807;51.456;7.244;2023-05-14T00:06:21;14.70;95.50
48998;DHT22;34807;51.456;7.244;2023-05-14T00:08:47;14.70;95.50
48998;DHT22;34807;51.456;7.244;2023-05-14T00:11:12;14.70;95.50
48998;DHT22;34807;51.456;7.244;2023-05-14T00:13:38;14.60;95.60
48998;DHT22;34807;51.456;7.244;2023-05-14T00:16:03;14.60;95.50
48998;DHT22;34807;51.456;7.244;2023-05-14T00:18:29;14.60;95.60
48998;DHT22;34807;51.456;7.244;2023-05-14T00:20:54;14.60;95.60
48998;DHT22;34807;51.456;7.244;2023-05-14T00:23:20;14.50;95.60
48998;DHT22;34807;51.456;7.244;2023-05-14T00:25:46;14.50;95.60
48998;DHT22;34807;51.456;7.244;2023-05-14T00:28:12;14.50;95.70
48998;DHT22;34807;51.456;7.244;2023-05-14T00:30:37;14.50;95.60
48998;DHT22;34807;51.456;7.244;2023-05-14T00:33:04;14.40;95.60
48998;DHT22;34807;51.456;7.244;2023-05-14T00:35:29;14.40;95.60
48998;DHT22;34807;51.456;7.244;2023-05-14T00:37:55;14.40;95.60
48998;DHT22;34807;51.456;7.244;2023-05-14T00:40:22;14.30;95.60
48998;DHT22;34807;51.456;7.244;2023-05-14T00:42:49;14.30;95.70
48998;DHT22;34807;51.456;7.244;2023-05-14T00:45:15;14.30;95.60
48998;DHT22;34807;51.456;7.244;2023-05-14T00:47:40;14.30;95.60
48998;DHT22;34807;51.456;7.244;2023-05-14T00:50:06;14.20;95.60
48998;DHT22;34807;51.456;7.244;2023-05-14T00:52:32;14.20;95.50
48998;DHT22;34807;51.456;7.244;2023-05-14T00:54:58;14.20;95.50
48998;DHT22;34807;51.456;7.244;2023-05-14T00:57:23;14.20;95.60
48998;DHT22;34807;51.456;7.244;2023-05-14T00:59:49;14.20;95.60
48998;DHT22;34807;51.456;7.244;2023-05-14T01:02:15;14.10;95.60
48998;DHT22;34807;51.456;7.244;2023-05-14T01:04:40;14.10;95.70
48998;DHT22;34807;51.456;7.244;2023-05-14T01:09:35;14.10;95.60
48998;DHT22;34807;51.456;7.244;2023-05-14T01:14:41;14.00;95.60
48998;DHT22;34807;51.456;7.244;2023-05-14T01:17:09;14.00;95.60
48998;DHT22;34807;51.456;7.244;2023-05-14T01:19:39;14.00;95.60
48998;DHT22;34807;51.456;7.244;2023-05-14T01:22:05;13.90;95.60
48998;DHT22;34807;51.456;7.244;2023-05-14T01:24:31;13.90;95.60
48998;DHT22;34807;51.456;7.244;2023-05-14T01:26:59;13.90;95.60
48998;DHT22;34807;51.456;7.244;2023-05-14T01:29:25;13.90;95.60
48998;DHT22;34807;51.456;7.244;2023-05-14T01:31:53;13.90;95.60
48998;DHT22;34807;51.456;7.244;2023-05-14T01:34:20;13.80;95.60
48998;DHT22;34807;51.456;7.244;2023-05-14T01:36:46;13.80;95.60
48998;DHT22;34807;51.456;7.244;2023-05-14T01:39:12;13.80;95.70
48998;DHT22;34807;51.456;7.244;2023-05-14T01:41:39;13.80;95.70
48998;DHT22;34807;51.456;7.244;2023-05-14T01:44:07;13.80;95.70
48998;DHT22;34807;51.456;7.244;2023-05-14T01:46:33;13.70;95.80
48998;DHT22;34807;51.456;7.244;2023-05-14T01:48:58;13.70;95.70
48998;DHT22;34807;51.456;7.244;2023-05-14T01:51:24;13.70;95.70
48998;DHT22;34807;51.456;7.244;2023-05-14T01:53:50;13.60;95.70
48998;DHT22;34807;51.456;7.244;2023-05-14T01:56:16;13.60;95.70
48998;DHT22;34807;51.456;7.244;2023-05-14T01:58:42;13.60;95.70
48998;DHT22;34807;51.456;7.244;2023-05-14T02:01:07;13.60;95.70
48998;DHT22;34807;51.456;7.244;2023-05-14T02:03:33;13.60;95.70
48998;DHT22;34807;51.456;7.244;2023-05-14T02:05:58;13.60;95.80
48998;DHT22;34807;51.456;7.244;2023-05-14T02:08:24;13.60;95.70
48998;DHT22;34807;51.456;7.244;2023-05-14T02:10:49;13.50;95.70
48998;DHT22;34807;51.456;7.244;2023-05-14T02:13:15;13.50;95.70
48998;DHT22;34807;51.456;7.244;2023-05-14T02:15:41;13.50;95.80
48998;DHT22;34807;51.456;7.244;2023-05-14T02:18:06;13.50;95.70
48998;DHT22;34807;51.456;7.244;2023-05-14T02:20:32;13.50;95.70
48998;DHT22;34807;51.456;7.244;2023-05-14T02:22:57;13.50;95.70
48998;DHT22;34807;51.456;7.244;2023-05-14T02:25:23;13.40;95.70
48998;DHT22;34807;51.456;7.244;2023-05-14T02:27:48;13.40;95.70
48998;DHT22;34807;51.456;7.244;2023-05-14T02:30:14;13.40;95.70
48998;DHT22;34807;51.456;7.244;2023-05-14T02:32:39;13.30;95.70
48998;DHT22;34807;51.456;7.244;2023-05-14T02:35:05;13.40;95.70
48998;DHT22;34807;51.456;7.244;2023-05-14T02:37:30;13.30;95.60
48998;DHT22;34807;51.456;7.244;2023-05-14T02:39:56;13.30;95.60
48998;DHT22;34807;51.456;7.244;2023-05-14T02:42:21;13.30;95.60
48998;DHT22;34807;51.456;7.244;2023-05-14T02:44:47;13.30;95.60
48998;DHT22;34807;51.456;7.244;2023-05-14T02:47:12;13.30;95.60
48998;DHT22;34807;51.456;7.244;2023-05-14T02:49:38;13.20;95.60
48998;DHT22;34807;51.456;7.244;2023-05-14T02:52:04;13.20;95.60
48998;DHT22;34807;51.456;7.244;2023-05-14T02:54:30;13.20;95.60
48998;DHT22;34807;51.456;7.244;2023-05-14T02:56:55;13.20;95.60
48998;DHT22;34807;51.456;7.244;2023-05-14T02:59:21;13.20;95.60
48998;DHT22;34807;51.456;7.244;2023-05-14T03:01:47;13.10;95.50
48998;DHT22;34807;51.456;7.244;2023-05-14T03:04:13;13.10;95.60
48998;DHT22;34807;51.456;7.244;2023-05-14T03:06:38;13.10;95.80
48998;DHT22;34807;51.456;7.244;2023-05-14T03:09:04;13.10;95.60
48998;DHT22;34807;51.456;7.244;2023-05-14T03:11:29;13.10;95.60
48998;DHT22;34807;51.456;7.244;2023-05-14T03:13:55;13.10;95.60
48998;DHT22;34807;51.456;7.244;2023-05-14T03:16:21;13.00;95.50
48998;DHT22;34807;51.456;7.244;2023-05-14T03:18:46;13.00;95.50
48998;DHT22;34807;51.456;7.244;2023-05-14T03:21:12;13.00;95.50
48998;DHT22;34807;51.456;7.244;2023-05-14T03:23:37;13.00;95.50
48998;DHT22;34807;51.456;7.244;2023-05-14T03:26:03;13.00;95.50
48998;DHT22;34807;51.456;7.244;2023-05-14T03:28:29;13.00;95.50
48998;DHT22;34807;51.456;7.244;2023-05-14T03:30:54;12.90;95.50
48998;DHT22;34807;51.456;7.244;2023-05-14T03:33:20;12.90;95.50
48998;DHT22;34807;51.456;7.244;2023-05-14T03:35:46;12.90;95.50
48998;DHT22;34807;51.456;7.244;2023-05-14T03:38:11;12.90;95.50
48998;DHT22;34807;51.456;7.244;2023-05-14T03:40:37;12.90;95.50
48998;DHT22;34807;51.456;7.244;2023-05-14T03:43:02;12.90;95.50
48998;DHT22;34807;51.456;7.244;2023-05-14T03:45:28;12.80;95.40
48998;DHT22;34807;51.456;7.244;2023-05-14T03:47:54;12.90;95.50
48998;DHT22;34807;51.456;7.244;2023-05-14T03:50:20;12.80;95.40
48998;DHT22;34807;51.456;7.244;2023-05-14T03:52:45;12.80;95.50
48998;DHT22;34807;51.456;7.244;2023-05-14T03:55:11;12.80;95.50
48998;DHT22;34807;51.456;7.244;2023-05-14T03:57:36;12.80;95.40
48998;DHT22;34807;51.456;7.244;2023-05-14T04:00:05;12.80;95.50
48998;DHT22;34807;51.456;7.244;2023-05-14T04:02:31;12.80;95.50
48998;DHT22;34807;51.456;7.244;2023-05-14T04:04:56;12.80;95.40
48998;DHT22;34807;51.456;7.244;2023-05-14T04:07:22;12.70;95.40
48998;DHT22;34807;51.456;7.244;2023-05-14T04:09:47;12.80;95.50
48998;DHT22;34807;51.456;7.244;2023-05-14T04:12:13;12.70;95.40
48998;DHT22;34807;51.456;7.244;2023-05-14T04:14:38;12.70;95.50
48998;DHT22;34807;51.456;7.244;2023-05-14T04:17:04;12.70;95.40
48998;DHT22;34807;51.456;7.244;2023-05-14T04:19:30;12.70;95.40
48998;DHT22;34807;51.456;7.244;2023-05-14T04:21:55;12.70;95.50
48998;DHT22;34807;51.456;7.244;2023-05-14T04:24:21;12.70;95.40
48998;DHT22;34807;51.456;7.244;2023-05-14T04:26:46;12.70;95.40
48998;DHT22;34807;51.456;7.244;2023-05-14T04:29:12;12.70;95.40
48998;DHT22;34807;51.456;7.244;2023-05-14T04:31:37;12.70;95.40
48998;DHT22;34807;51.456;7.244;2023-05-14T04:34:03;12.70;95.40
48998;DHT22;34807;51.456;7.244;2023-05-14T04:36:28;12.60;95.40
48998;DHT22;34807;51.456;7.244;2023-05-14T04:38:54;12.70;95.40
48998;DHT22;34807;51.456;7.244;2023-05-14T04:41:20;12.60;95.40
48998;DHT22;34807;51.456;7.244;2023-05-14T04:43:45;12.60;95.40
48998;DHT22;34807;51.456;7.244;2023-05-14T04:46:11;12.60;95.40
48998;DHT22;34807;51.456;7.244;2023-05-14T04:48:38;12.60;95.40
48998;DHT22;34807;51.456;7.244;2023-05-14T04:51:03;12.60;95.40
48998;DHT22;34807;51.456;7.244;2023-05-14T04:53:29;12.60;95.40
48998;DHT22;34807;51.456;7.244;2023-05-14T04:55:55;12.60;95.40
48998;DHT22;34807;51.456;7.244;2023-05-14T04:58:20;12.60;95.40
48998;DHT22;34807;51.456;7.244;2023-05-14T05:00:47;12.60;95.30
48998;DHT22;34807;51.456;7.244;2023-05-14T05:03:13;12.60;95.40
48998;DHT22;34807;51.456;7.244;2023-05-14T05:05:39;12.60;95.40
48998;DHT22;34807;51.456;7.244;2023-05-14T05:08:04;12.60;95.40
48998;DHT22;34807;51.456;7.244;2023-05-14T05:10:30;12.60;95.40
48998;DHT22;34807;51.456;7.244;2023-05-14T05:12:55;12.60;95.40
48998;DHT22;34807;51.456;7.244;2023-05-14T05:15:21;12.60;95.40
48998;DHT22;34807;51.456;7.244;2023-05-14T05:17:46;12.60;95.40
48998;DHT22;34807;51.456;7.244;2023-05-14T05:20:12;12.60;95.50
48998;DHT22;34807;51.456;7.244;2023-05-14T05:22:38;12.70;95.40
48998;DHT22;34807;51.456;7.244;2023-05-14T05:25:03;12.70;95.50
48998;DHT22;34807;51.456;7.244;2023-05-14T05:27:33;12.70;95.50
48998;DHT22;34807;51.456;7.244;2023-05-14T05:30:00;12.60;95.50
48998;DHT22;34807;51.456;7.244;2023-05-14T05:32:26;12.60;95.50
48998;DHT22;34807;51.456;7.244;2023-05-14T05:34:51;12.60;95.50
48998;DHT22;34807;51.456;7.244;2023-05-14T05:37:17;12.60;95.60
48998;DHT22;34807;51.456;7.244;2023-05-14T05:39:43;12.60;95.60
48998;DHT22;34807;51.456;7.244;2023-05-14T05:42:08;12.60;95.60
48998;DHT22;34807;51.456;7.244;2023-05-14T05:44:34;12.60;95.60
48998;DHT22;34807;51.456;7.244;2023-05-14T05:47:00;12.60;95.60
48998;DHT22;34807;51.456;7.244;2023-05-14T05:49:25;12.60;95.70
48998;DHT22;34807;51.456;7.244;2023-05-14T05:51:51;12.60;95.70
48998;DHT22;34807;51.456;7.244;2023-05-14T05:54:16;12.70;95.70
48998;DHT22;34807;51.456;7.244;2023-05-14T05:56:42;12.70;95.70
48998;DHT22;34807;51.456;7.244;2023-05-14T05:59:07;12.70;95.70
48998;DHT22;34807;51.456;7.244;2023-05-14T06:01:33;12.70;95.70
48998;DHT22;34807;51.456;7.244;2023-05-14T06:03:58;12.70;95.70
48998;DHT22;34807;51.456;7.244;2023-05-14T06:06:24;12.70;95.70
48998;DHT22;34807;51.456;7.244;2023-05-14T06:08:50;12.70;95.70
48998;DHT22;34807;51.456;7.244;2023-05-14T06:11:15;12.70;95.60
48998;DHT22;34807;51.456;7.244;2023-05-14T06:13:41;12.70;95.60
48998;DHT22;34807;51.456;7.244;2023-05-14T06:16:06;12.70;95.60
48998;DHT22;34807;51.456;7.244;2023-05-14T06:18:32;12.70;95.70
48998;DHT22;34807;51.456;7.244;2023-05-14T06:20:57;12.70;95.60
48998;DHT22;34807;51.456;7.244;2023-05-14T06:23:24;12.70;95.70
48998;DHT22;34807;51.456;7.244;2023-05-14T06:25:50;12.70;95.60
48998;DHT22;34807;51.456;7.244;2023-05-14T06:28:16;12.70;95.70
48998;DHT22;34807;51.456;7.244;2023-05-14T06:30:41;12.70;95.70
48998;DHT22;34807;51.456;7.244;2023-05-14T06:33:07;12.70;95.60
48998;DHT22;34807;51.456;7.244;2023-05-14T06:35:32;12.70;95.60
48998;DHT22;34807;51.456;7.244;2023-05-14T06:37:59;12.70;95.50
48998;DHT22;34807;51.456;7.244;2023-05-14T06:40:24;12.70;95.50
48998;DHT22;34807;51.456;7.244;2023-05-14T06:42:50;12.70;95.50
48998;DHT22;34807;51.456;7.244;2023-05-14T06:45:15;12.70;95.50
48998;DHT22;34807;51.456;7.244;2023-05-14T06:47:41;12.70;95.50
48998;DHT22;34807;51.456;7.244;2023-05-14T06:50:06;12.80;95.50
48998;DHT22;34807;51.456;7.244;2023-05-14T06:52:32;12.80;95.50
48998;DHT22;34807;51.456;7.244;2023-05-14T06:54:57;12.80;95.50
48998;DHT22;34807;51.456;7.244;2023-05-14T06:57:23;12.80;95.50
48998;DHT22;34807;51.456;7.244;2023-05-14T06:59:49;12.80;95.50
48998;DHT22;34807;51.456;7.244;2023-05-14T07:02:14;12.90;95.50
48998;DHT22;34807;51.456;7.244;2023-05-14T07:04:40;12.90;95.50
48998;DHT22;34807;51.456;7.244;2023-05-14T07:07:05;12.90;95.40
48998;DHT22;34807;51.456;7.244;2023-05-14T07:09:31;12.90;95.40
48998;DHT22;34807;51.456;7.244;2023-05-14T07:11:56;12.90;95.40
48998;DHT22;34807;51.456;7.244;2023-05-14T07:14:22;13.00;95.30
48998;DHT22;34807;51.456;7.244;2023-05-14T07:16:47;13.00;95.30
48998;DHT22;34807;51.456;7.244;2023-05-14T07:19:13;13.00;95.30
48998;DHT22;34807;51.456;7.244;2023-05-14T07:21:38;13.00;95.30
48998;DHT22;34807;51.456;7.244;2023-05-14T07:24:04;13.10;95.20
48998;DHT22;34807;51.456;7.244;2023-05-14T07:26:29;13.10;95.20
48998;DHT22;34807;51.456;7.244;2023-05-14T07:28:55;13.10;95.20
48998;DHT22;34807;51.456;7.244;2023-05-14T07:31:21;13.10;95.10
48998;DHT22;34807;51.456;7.244;2023-05-14T07:33:46;13.20;95.10
48998;DHT22;34807;51.456;7.244;2023-05-14T07:36:12;13.10;95.00
48998;DHT22;34807;51.456;7.244;2023-05-14T07:38:37;13.20;95.00
48998;DHT22;34807;51.456;7.244;2023-05-14T07:41:03;13.20;95.00
48998;DHT22;34807;51.456;7.244;2023-05-14T07:43:29;13.20;94.90
48998;DHT22;34807;51.456;7.244;2023-05-14T07:45:54;13.30;94.90
48998;DHT22;34807;51.456;7.244;2023-05-14T07:48:20;13.30;94.80
48998;DHT22;34807;51.456;7.244;2023-05-14T07:50:46;13.30;94.80
48998;DHT22;34807;51.456;7.244;2023-05-14T07:53:12;13.30;94.80
48998;DHT22;34807;51.456;7.244;2023-05-14T07:55:38;13.40;94.80
48998;DHT22;34807;51.456;7.244;2023-05-14T07:58:03;13.40;94.70
48998;DHT22;34807;51.456;7.244;2023-05-14T08:00:29;13.50;94.80
48998;DHT22;34807;51.456;7.244;2023-05-14T08:02:54;13.50;94.70
48998;DHT22;34807;51.456;7.244;2023-05-14T08:05:20;13.50;94.80
48998;DHT22;34807;51.456;7.244;2023-05-14T08:07:45;13.60;94.70
48998;DHT22;34807;51.456;7.244;2023-05-14T08:10:11;13.60;94.60
48998;DHT22;34807;51.456;7.244;2023-05-14T08:12:36;13.60;94.80
48998;DHT22;34807;51.456;7.244;2023-05-14T08:15:04;13.70;94.60
48998;DHT22;34807;51.456;7.244;2023-05-14T08:17:29;13.70;94.50
48998;DHT22;34807;51.456;7.244;2023-05-14T08:19:55;13.70;94.40
48998;DHT22;34807;51.456;7.244;2023-05-14T08:22:21;13.70;94.40
48998;DHT22;34807;51.456;7.244;2023-05-14T08:24:46;13.80;94.40
48998;DHT22;34807;51.456;7.244;2023-05-14T08:27:12;13.80;94.30
48998;DHT22;34807;51.456;7.244;2023-05-14T08:29:37;13.90;94.30
48998;DHT22;34807;51.456;7.244;2023-05-14T08:32:03;13.90;94.20
48998;DHT22;34807;51.456;7.244;2023-05-14T08:34:29;13.90;94.20
48998;DHT22;34807;51.456;7.244;2023-05-14T08:36:55;14.00;94.50
48998;DHT22;34807;51.456;7.244;2023-05-14T08:39:20;14.00;94.10
48998;DHT22;34807;51.456;7.244;2023-05-14T08:41:46;14.00;94.10
48998;DHT22;34807;51.456;7.244;2023-05-14T08:44:12;14.00;94.00
48998;DHT22;34807;51.456;7.244;2023-05-14T08:46:39;14.10;94.00
48998;DHT22;34807;51.456;7.244;2023-05-14T08:51:53;14.20;93.90
48998;DHT22;34807;51.456;7.244;2023-05-14T08:54:18;14.20;93.90
48998;DHT22;34807;51.456;7.244;2023-05-14T08:56:46;14.20;93.80
48998;DHT22;34807;51.456;7.244;2023-05-14T08:59:12;14.30;93.80
48998;DHT22;34807;51.456;7.244;2023-05-14T09:01:38;14.30;93.70
48998;DHT22;34807;51.456;7.244;2023-05-14T09:04:06;14.30;93.60
48998;DHT22;34807;51.456;7.244;2023-05-14T09:06:35;14.40;93.60
48998;DHT22;34807;51.456;7.244;2023-05-14T09:09:04;14.50;93.50
48998;DHT22;34807;51.456;7.244;2023-05-14T09:11:30;14.50;93.50
48998;DHT22;34807;51.456;7.244;2023-05-14T09:13:55;14.50;93.50
48998;DHT22;34807;51.456;7.244;2023-05-14T09:16:21;14.60;93.40
48998;DHT22;34807;51.456;7.244;2023-05-14T09:18:47;14.60;93.40
48998;DHT22;34807;51.456;7.244;2023-05-14T09:21:13;14.70;93.30
48998;DHT22;34807;51.456;7.244;2023-05-14T09:23:42;14.70;93.30
48998;DHT22;34807;51.456;7.244;2023-05-14T09:26:08;14.80;93.30
48998;DHT22;34807;51.456;7.244;2023-05-14T09:28:34;14.80;93.20
48998;DHT22;34807;51.456;7.244;2023-05-14T09:31:01;14.90;93.20
48998;DHT22;34807;51.456;7.244;2023-05-14T09:33:27;14.90;93.20
48998;DHT22;34807;51.456;7.244;2023-05-14T09:35:59;15.00;93.10
48998;DHT22;34807;51.456;7.244;2023-05-14T09:38:31;15.00;93.00
48998;DHT22;34807;51.456;7.244;2023-05-14T09:40:57;15.10;93.00
48998;DHT22;34807;51.456;7.244;2023-05-14T09:43:22;15.20;93.00
48998;DHT22;34807;51.456;7.244;2023-05-14T09:45:48;15.20;93.00
48998;DHT22;34807;51.456;7.244;2023-05-14T09:48:14;15.30;92.80
48998;DHT22;34807;51.456;7.244;2023-05-14T09:50:43;15.40;92.70
48998;DHT22;34807;51.456;7.244;2023-05-14T09:53:09;15.50;92.80
48998;DHT22;34807;51.456;7.244;2023-05-14T09:55:35;15.60;92.60
48998;DHT22;34807;51.456;7.244;2023-05-14T09:58:01;15.60;92.50
48998;DHT22;34807;51.456;7.244;2023-05-14T10:00:26;15.70;92.50
48998;DHT22;34807;51.456;7.244;2023-05-14T10:02:52;15.70;92.40
48998;DHT22;34807;51.456;7.244;2023-05-14T10:05:19;15.80;92.30
48998;DHT22;34807;51.456;7.244;2023-05-14T10:07:47;15.80;92.40
48998;DHT22;34807;51.456;7.244;2023-05-14T10:10:14;15.90;92.40
48998;DHT22;34807;51.456;7.244;2023-05-14T10:12:40;15.90;92.30
48998;DHT22;34807;51.456;7.244;2023-05-14T10:15:15;16.00;92.40
48998;DHT22;34807;51.456;7.244;2023-05-14T10:17:43;16.00;92.40
48998;DHT22;34807;51.456;7.244;2023-05-14T10:20:12;16.10;92.40
48998;DHT22;34807;51.456;7.244;2023-05-14T10:22:39;16.20;92.20
48998;DHT22;34807;51.456;7.244;2023-05-14T10:25:04;16.30;91.90
48998;DHT22;34807;51.456;7.244;2023-05-14T10:27:31;16.30;92.30
48998;DHT22;34807;51.456;7.244;2023-05-14T10:29:56;16.40;92.10
48998;DHT22;34807;51.456;7.244;2023-05-14T10:32:22;16.50;92.10
48998;DHT22;34807;51.456;7.244;2023-05-14T10:34:49;16.60;92.30
48998;DHT22;34807;51.456;7.244;2023-05-14T10:37:16;16.60;92.30
48998;DHT22;34807;51.456;7.244;2023-05-14T10:42:17;16.90;92.10
48998;DHT22;34807;51.456;7.244;2023-05-14T10:44:47;16.90;91.90
48998;DHT22;34807;51.456;7.244;2023-05-14T10:47:14;17.00;91.90
48998;DHT22;34807;51.456;7.244;2023-05-14T10:49:41;17.10;92.10
48998;DHT22;34807;51.456;7.244;2023-05-14T10:52:07;17.20;92.00
48998;DHT22;34807;51.456;7.244;2023-05-14T10:54:36;17.30;92.20
48998;DHT22;34807;51.456;7.244;2023-05-14T10:57:02;17.50;92.50
48998;DHT22;34807;51.456;7.244;2023-05-14T10:59:28;17.50;92.50
48998;DHT22;34807;51.456;7.244;2023-05-14T11:01:55;17.70;92.20
48998;DHT22;34807;51.456;7.244;2023-05-14T11:04:23;17.80;92.20
48998;DHT22;34807;51.456;7.244;2023-05-14T11:06:49;17.90;92.60
48998;DHT22;34807;51.456;7.244;2023-05-14T11:09:16;18.00;92.60
48998;DHT22;34807;51.456;7.244;2023-05-14T11:11:42;18.10;92.60
48998;DHT22;34807;51.456;7.244;2023-05-14T11:14:08;18.20;92.50
48998;DHT22;34807;51.456;7.244;2023-05-14T11:16:33;18.30;92.50
48998;DHT22;34807;51.456;7.244;2023-05-14T11:19:00;18.50;92.50
48998;DHT22;34807;51.456;7.244;2023-05-14T11:21:26;18.50;92.60
48998;DHT22;34807;51.456;7.244;2023-05-14T11:23:53;18.70;92.50
48998;DHT22;34807;51.456;7.244;2023-05-14T11:26:18;18.80;92.30
48998;DHT22;34807;51.456;7.244;2023-05-14T11:28:44;18.90;92.20
48998;DHT22;34807;51.456;7.244;2023-05-14T11:31:10;19.00;92.10
48998;DHT22;34807;51.456;7.244;2023-05-14T11:33:36;19.10;92.10
48998;DHT22;34807;51.456;7.244;2023-05-14T11:36:02;19.20;92.00
48998;DHT22;34807;51.456;7.244;2023-05-14T11:38:28;19.30;92.00
48998;DHT22;34807;51.456;7.244;2023-05-14T11:40:54;19.40;92.10
48998;DHT22;34807;51.456;7.244;2023-05-14T11:43:19;19.40;92.10
48998;DHT22;34807;51.456;7.244;2023-05-14T11:45:51;19.50;92.10
48998;DHT22;34807;51.456;7.244;2023-05-14T11:48:17;19.60;92.20
48998;DHT22;34807;51.456;7.244;2023-05-14T11:50:46;19.60;92.20
48998;DHT22;34807;51.456;7.244;2023-05-14T11:53:15;19.70;92.00
48998;DHT22;34807;51.456;7.244;2023-05-14T11:55:40;19.80;92.10
48998;DHT22;34807;51.456;7.244;2023-05-14T11:58:06;19.90;92.10
48998;DHT22;34807;51.456;7.244;2023-05-14T12:00:31;19.90;91.90
48998;DHT22;34807;51.456;7.244;2023-05-14T12:02:58;20.00;91.80
48998;DHT22;34807;51.456;7.244;2023-05-14T12:05:24;20.10;91.80
48998;DHT22;34807;51.456;7.244;2023-05-14T12:07:49;20.20;91.50
48998;DHT22;34807;51.456;7.244;2023-05-14T12:10:14;20.20;91.10
48998;DHT22;34807;51.456;7.244;2023-05-14T12:12:43;20.30;90.90
48998;DHT22;34807;51.456;7.244;2023-05-14T12:15:09;20.40;90.90
48998;DHT22;34807;51.456;7.244;2023-05-14T12:17:36;20.50;91.10
48998;DHT22;34807;51.456;7.244;2023-05-14T12:20:02;20.50;91.10
48998;DHT22;34807;51.456;7.244;2023-05-14T12:22:28;20.60;90.80
48998;DHT22;34807;51.456;7.244;2023-05-14T12:24:54;20.70;91.00
48998;DHT22;34807;51.456;7.244;2023-05-14T12:27:24;20.70;90.80
48998;DHT22;34807;51.456;7.244;2023-05-14T12:30:00;20.80;90.70
48998;DHT22;34807;51.456;7.244;2023-05-14T12:32:27;20.90;90.70
48998;DHT22;34807;51.456;7.244;2023-05-14T12:34:55;20.80;90.50
48998;DHT22;34807;51.456;7.244;2023-05-14T12:37:20;20.90;90.00
48998;DHT22;34807;51.456;7.244;2023-05-14T12:39:46;21.00;90.40
48998;DHT22;34807;51.456;7.244;2023-05-14T12:42:13;21.10;90.00
48998;DHT22;34807;51.456;7.244;2023-05-14T12:44:38;21.20;90.70
48998;DHT22;34807;51.456;7.244;2023-05-14T12:47:04;21.20;90.50
48998;DHT22;34807;51.456;7.244;2023-05-14T12:49:29;21.30;90.50
48998;DHT22;34807;51.456;7.244;2023-05-14T12:51:55;21.40;90.40
48998;DHT22;34807;51.456;7.244;2023-05-14T12:54:20;21.40;90.40
48998;DHT22;34807;51.456;7.244;2023-05-14T12:56:46;21.50;89.90
48998;DHT22;34807;51.456;7.244;2023-05-14T12:59:11;21.50;90.10
48998;DHT22;34807;51.456;7.244;2023-05-14T13:01:37;21.60;89.60
48998;DHT22;34807;51.456;7.244;2023-05-14T13:04:03;21.70;89.10
48998;DHT22;34807;51.456;7.244;2023-05-14T13:06:29;21.60;89.90
48998;DHT22;34807;51.456;7.244;2023-05-14T13:08:55;21.60;90.00
48998;DHT22;34807;51.456;7.244;2023-05-14T13:11:24;21.70;89.80
48998;DHT22;34807;51.456;7.244;2023-05-14T13:13:49;21.70;90.20
48998;DHT22;34807;51.456;7.244;2023-05-14T13:16:15;21.80;90.20
48998;DHT22;34807;51.456;7.244;2023-05-14T13:18:41;21.90;89.60
48998;DHT22;34807;51.456;7.244;2023-05-14T13:21:06;22.00;89.60
48998;DHT22;34807;51.456;7.244;2023-05-14T13:23:32;22.00;89.50
48998;DHT22;34807;51.456;7.244;2023-05-14T13:25:58;22.00;89.10
48998;DHT22;34807;51.456;7.244;2023-05-14T13:28:23;22.00;89.70
48998;DHT22;34807;51.456;7.244;2023-05-14T13:31:02;21.90;88.70
48998;DHT22;34807;51.456;7.244;2023-05-14T13:33:27;21.90;88.10
48998;DHT22;34807;51.456;7.244;2023-05-14T13:35:53;22.00;88.10
48998;DHT22;34807;51.456;7.244;2023-05-14T13:38:19;22.00;88.60
48998;DHT22;34807;51.456;7.244;2023-05-14T13:40:44;22.00;88.70
48998;DHT22;34807;51.456;7.244;2023-05-14T13:43:10;22.00;88.70
48998;DHT22;34807;51.456;7.244;2023-05-14T13:45:35;22.00;88.30
48998;DHT22;34807;51.456;7.244;2023-05-14T13:48:01;22.10;88.80
48998;DHT22;34807;51.456;7.244;2023-05-14T13:50:26;22.10;87.70
48998;DHT22;34807;51.456;7.244;2023-05-14T13:52:52;22.10;87.50
48998;DHT22;34807;51.456;7.244;2023-05-14T13:55:17;22.20;86.30
48998;DHT22;34807;51.456;7.244;2023-05-14T13:57:43;22.20;86.70
48998;DHT22;34807;51.456;7.244;2023-05-14T14:00:08;22.20;86.00
48998;DHT22;34807;51.456;7.244;2023-05-14T14:02:35;22.20;86.60
48998;DHT22;34807;51.456;7.244;2023-05-14T14:05:00;22.20;86.80
48998;DHT22;34807;51.456;7.244;2023-05-14T14:07:26;22.30;86.40
48998;DHT22;34807;51.456;7.244;2023-05-14T14:09:51;22.30;86.10
48998;DHT22;34807;51.456;7.244;2023-05-14T14:12:17;22.40;86.30
48998;DHT22;34807;51.456;7.244;2023-05-14T14:14:42;22.40;85.90
48998;DHT22;34807;51.456;7.244;2023-05-14T14:17:08;22.40;85.40
48998;DHT22;34807;51.456;7.244;2023-05-14T14:19:33;22.40;84.80
48998;DHT22;34807;51.456;7.244;2023-05-14T14:21:59;22.40;84.30
48998;DHT22;34807;51.456;7.244;2023-05-14T14:24:24;22.50;84.50
48998;DHT22;34807;51.456;7.244;2023-05-14T14:26:50;22.60;84.70
48998;DHT22;34807;51.456;7.244;2023-05-14T14:29:15;22.70;83.60
48998;DHT22;34807;51.456;7.244;2023-05-14T14:31:41;22.80;82.50
48998;DHT22;34807;51.456;7.244;2023-05-14T14:34:07;22.70;82.80
48998;DHT22;34807;51.456;7.244;2023-05-14T14:36:33;22.70;83.00
48998;DHT22;34807;51.456;7.244;2023-05-14T14:38:58;22.70;83.40
48998;DHT22;34807;51.456;7.244;2023-05-14T14:41:24;22.70;83.20
48998;DHT22;34807;51.456;7.244;2023-05-14T14:43:50;22.80;82.70
48998;DHT22;34807;51.456;7.244;2023-05-14T14:46:16;22.80;82.50
48998;DHT22;34807;51.456;7.244;2023-05-14T14:48:41;23.00;82.40
48998;DHT22;34807;51.456;7.244;2023-05-14T14:51:08;23.20;82.00
48998;DHT22;34807;51.456;7.244;2023-05-14T14:53:34;23.30;81.50
48998;DHT22;34807;51.456;7.244;2023-05-14T14:56:00;23.50;80.50
48998;DHT22;34807;51.456;7.244;2023-05-14T14:58:26;23.50;80.90
48998;DHT22;34807;51.456;7.244;2023-05-14T15:00:52;23.60;80.30
48998;DHT22;34807;51.456;7.244;2023-05-14T15:03:18;23.80;79.80
48998;DHT22;34807;51.456;7.244;2023-05-14T15:05:44;23.90;80.10
48998;DHT22;34807;51.456;7.244;2023-05-14T15:08:10;23.80;80.20
48998;DHT22;34807;51.456;7.244;2023-05-14T15:10:35;23.70;79.30
48998;DHT22;34807;51.456;7.244;2023-05-14T15:13:02;23.70;79.50
48998;DHT22;34807;51.456;7.244;2023-05-14T15:15:28;23.60;79.10
48998;DHT22;34807;51.456;7.244;2023-05-14T15:17:53;23.50;79.90
48998;DHT22;34807;51.456;7.244;2023-05-14T15:20:19;23.40;80.90
48998;DHT22;34807;51.456;7.244;2023-05-14T15:22:44;23.50;80.50
48998;DHT22;34807;51.456;7.244;2023-05-14T15:25:10;23.50;80.50
48998;DHT22;34807;51.456;7.244;2023-05-14T15:27:35;23.60;80.60
48998;DHT22;34807;51.456;7.244;2023-05-14T15:30:02;23.60;80.30
48998;DHT22;34807;51.456;7.244;2023-05-14T15:32:28;23.60;80.20